Terminal Aerodrome Forecast
Issued by NWS Sterling, VA

Current Version | Previous Version | Graphics & Text | Print | Product List | Glossary On
Versions: 1 2 3 4 5 6 7 8 9 10 11 12 13 14 15 16 17 18
000
FTUS41 KLWX 032347
TAFMRB
TAF
KMRB 032347Z 0400/0424 16008KT P6SM OVC029
     FM040400 22006KT 4SM BR OVC012
     FM041200 28005KT 3SM -RA BR OVC010=

USA.gov is the U.S. government's official web portal to all federal, state and local government web resources and services.